createdAt,value
2022-08-26T00:00:36.035Z,10.00
2022-08-26T00:03:40.849Z,11.25
2022-08-26T00:06:46.268Z,10.00
2022-08-26T00:09:49.951Z,11.00
2022-08-26T00:12:52.462Z,11.50
2022-08-26T00:15:55.033Z,10.75
2022-08-26T00:18:57.553Z,11.25
2022-08-26T00:22:00.168Z,9.50
2022-08-26T00:25:02.471Z,10.25
2022-08-26T00:28:06.390Z,10.00
2022-08-26T00:31:10.899Z,10.00
2022-08-26T00:34:15.339Z,10.75
2022-08-26T00:37:18.635Z,10.00
2022-08-26T00:40:45.938Z,11.50
2022-08-26T00:43:48.223Z,13.00
2022-08-26T00:46:54.914Z,11.00
2022-08-26T00:49:57.464Z,14.00
2022-08-26T00:53:01.264Z,12.75
2022-08-26T00:56:13.361Z,14.00
2022-08-26T00:59:17.227Z,9.50
2022-08-26T01:02:21.078Z,12.00
2022-08-26T01:05:24.394Z,12.00
2022-08-26T01:08:27.147Z,12.75
2022-08-26T01:11:31.091Z,13.00
2022-08-26T01:14:35.621Z,12.75
2022-08-26T01:17:39.658Z,11.75
2022-08-26T01:20:41.835Z,12.75
2022-08-26T01:23:48.435Z,13.25
2022-08-26T01:26:51.341Z,13.75
2022-08-26T01:29:53.658Z,12.00
2022-08-26T01:32:58.032Z,9.75
2022-08-26T01:36:00.891Z,11.50
2022-08-26T01:39:05.942Z,12.25
2022-08-26T01:42:14.106Z,12.50
2022-08-26T01:45:31.188Z,12.25
2022-08-26T01:48:35.537Z,12.00
2022-08-26T01:51:38.810Z,12.75
2022-08-26T01:54:41.911Z,14.00
2022-08-26T01:57:51.758Z,14.50
2022-08-26T02:00:58.911Z,11.75
2022-08-26T02:04:18.058Z,13.75
2022-08-26T02:07:21.609Z,11.75
2022-08-26T02:10:24.157Z,12.75
2022-08-26T02:13:31.367Z,13.00
2022-08-26T02:16:37.833Z,13.00
2022-08-26T02:19:47.211Z,11.75
2022-08-26T02:22:49.935Z,13.00
2022-08-26T02:26:07.146Z,15.00
2022-08-26T02:29:21.387Z,13.50
2022-08-26T02:32:24.199Z,13.75
2022-08-26T02:35:26.519Z,14.25
2022-08-26T02:38:29.681Z,14.50
2022-08-26T02:41:32.293Z,14.25
2022-08-26T02:44:35.072Z,14.00
2022-08-26T02:47:37.475Z,9.50
2022-08-26T02:50:40.202Z,14.50
2022-08-26T02:53:42.776Z,12.75
2022-08-26T02:56:45.517Z,13.25
2022-08-26T02:59:47.878Z,13.00
2022-08-26T03:02:50.373Z,14.50
2022-08-26T03:05:54.575Z,14.00
2022-08-26T03:08:56.741Z,13.75
2022-08-26T03:11:59.323Z,13.00
2022-08-26T03:15:01.699Z,14.25
2022-08-26T03:18:04.829Z,15.00
2022-08-26T03:21:08.562Z,13.00
2022-08-26T03:24:11.388Z,14.00
2022-08-26T03:27:14.375Z,14.50
2022-08-26T03:30:35.482Z,13.50
2022-08-26T03:33:37.622Z,12.75
2022-08-26T03:36:40.871Z,12.00
2022-08-26T03:39:43.855Z,13.00
2022-08-26T03:42:46.244Z,14.00
2022-08-26T03:45:48.434Z,14.25
2022-08-26T03:48:53.555Z,11.50
2022-08-26T03:51:55.883Z,13.75
2022-08-26T03:54:58.362Z,14.00
2022-08-26T03:58:01.167Z,14.50
2022-08-26T04:01:04.093Z,14.00
2022-08-26T04:04:06.569Z,14.50
2022-08-26T04:07:09.519Z,12.00
2022-08-26T04:10:14.765Z,14.50
2022-08-26T04:13:21.601Z,13.75
2022-08-26T04:16:23.774Z,13.50
2022-08-26T04:19:28.421Z,14.75
2022-08-26T04:22:30.527Z,15.50
2022-08-26T04:25:32.826Z,15.75
2022-08-26T04:28:34.924Z,14.25
2022-08-26T04:31:38.178Z,14.00
2022-08-26T04:34:40.873Z,14.25
2022-08-26T04:37:44.157Z,13.50
2022-08-26T04:40:46.683Z,13.75
2022-08-26T04:43:50.362Z,14.00
2022-08-26T04:46:54.238Z,15.75
2022-08-26T04:49:57.856Z,14.75
2022-08-26T04:53:00.217Z,14.00
2022-08-26T04:56:02.794Z,13.75
2022-08-26T04:59:16.825Z,14.00
2022-08-26T05:02:20.582Z,14.00
2022-08-26T05:05:22.705Z,13.75
2022-08-26T05:08:25.537Z,14.50
2022-08-26T05:11:27.797Z,11.50
2022-08-26T05:14:31.555Z,15.25
2022-08-26T05:17:36.554Z,11.75
2022-08-26T05:20:40.642Z,16.00
2022-08-26T05:23:42.856Z,14.00
2022-08-26T05:26:45.261Z,15.00
2022-08-26T05:29:48.194Z,12.00
2022-08-26T05:32:57.308Z,13.50
2022-08-26T05:36:07.522Z,13.75
2022-08-26T05:39:11.591Z,14.25
2022-08-26T05:42:13.618Z,13.50
2022-08-26T05:45:16.010Z,15.00
2022-08-26T05:48:24.105Z,13.75
2022-08-26T05:51:27.372Z,13.75
2022-08-26T05:54:34.771Z,13.00
2022-08-26T05:57:42.289Z,11.75
2022-08-26T06:00:45.242Z,14.00
2022-08-26T06:03:49.985Z,13.50
2022-08-26T06:06:52.379Z,13.50
2022-08-26T06:10:05.503Z,13.00
2022-08-26T06:13:18.372Z,13.00
2022-08-26T06:16:23.341Z,11.33
2022-08-26T06:19:26.268Z,14.33
2022-08-26T06:22:54.340Z,10.33
2022-08-26T06:25:57.838Z,12.67
2022-08-26T06:29:00.097Z,13.33
2022-08-26T06:32:04.818Z,14.67
2022-08-26T06:35:07.446Z,13.00
2022-08-26T06:38:15.602Z,15.67
2022-08-26T06:41:21.059Z,13.00
2022-08-26T06:44:23.300Z,15.00
2022-08-26T06:47:25.827Z,15.00
2022-08-26T06:50:30.616Z,14.00
2022-08-26T06:53:33.468Z,15.00
2022-08-26T06:56:39.668Z,13.67
2022-08-26T06:59:42.537Z,13.00
2022-08-26T07:02:46.889Z,13.67
2022-08-26T07:05:49.630Z,12.00
2022-08-26T07:09:04.971Z,13.00
2022-08-26T07:12:07.657Z,12.00
2022-08-26T07:15:10.394Z,12.33
2022-08-26T07:18:12.732Z,13.00
2022-08-26T07:21:17.307Z,12.33
2022-08-26T07:24:20.596Z,13.00
2022-08-26T07:27:23.267Z,9.33
2022-08-26T07:30:25.722Z,12.67
2022-08-26T07:33:29.537Z,14.33
2022-08-26T07:36:32.469Z,12.33
2022-08-26T07:39:34.980Z,13.33
2022-08-26T07:42:37.429Z,15.33
2022-08-26T07:45:39.604Z,13.00
2022-08-26T07:48:45.996Z,14.67
2022-08-26T07:51:49.768Z,12.33
2022-08-26T07:54:52.069Z,13.00
2022-08-26T07:57:54.152Z,13.33
2022-08-26T08:00:57.144Z,12.00
2022-08-26T08:04:01.137Z,13.00
2022-08-26T08:07:04.965Z,11.67
2022-08-26T08:10:11.507Z,12.67
2022-08-26T08:13:14.480Z,13.00
2022-08-26T08:16:17.171Z,10.00
2022-08-26T08:19:19.467Z,13.00
2022-08-26T08:22:23.656Z,12.00
2022-08-26T08:25:26.980Z,12.00
2022-08-26T08:28:29.213Z,10.75
2022-08-26T08:34:56.355Z,12.25
2022-08-26T08:37:58.754Z,13.25
2022-08-26T08:41:02.130Z,11.25
2022-08-26T08:44:12.208Z,11.00
2022-08-26T08:47:25.085Z,11.00
2022-08-26T08:50:37.808Z,11.75
2022-08-26T08:53:43.303Z,12.00
2022-08-26T08:56:57.978Z,11.25
2022-08-26T09:00:09.187Z,13.25
2022-08-26T09:03:24.048Z,13.00
2022-08-26T09:06:27.708Z,11.50
2022-08-26T09:09:51.938Z,11.50
2022-08-26T09:12:54.754Z,11.75
2022-08-26T09:16:03.116Z,13.25
2022-08-26T09:19:18.806Z,12.50
2022-08-26T09:22:35.940Z,11.60
2022-08-26T09:26:00.064Z,12.00
2022-08-26T09:29:09.949Z,11.00
2022-08-26T09:32:16.245Z,12.00
2022-08-26T09:35:35.814Z,13.00
2022-08-26T09:38:37.907Z,12.40
2022-08-26T09:41:41.925Z,12.40
2022-08-26T09:44:55.926Z,12.00
2022-08-26T09:48:01.323Z,11.00
2022-08-26T09:51:32.671Z,11.80
2022-08-26T09:54:35.578Z,12.00
2022-08-26T09:57:52.122Z,7.60
2022-08-26T10:00:57.312Z,10.80
2022-08-26T10:04:10.309Z,9.00
2022-08-26T10:07:13.421Z,10.00
2022-08-26T10:10:39.884Z,10.00
2022-08-26T10:13:46.633Z,1.20
2022-08-26T10:16:54.433Z,10.00
2022-08-26T10:20:01.363Z,9.40
2022-08-26T10:23:16.313Z,11.00
2022-08-26T10:26:30.727Z,10.00
2022-08-26T10:29:42.853Z,10.00
2022-08-26T10:32:53.921Z,10.00
2022-08-26T10:36:03.854Z,10.40
2022-08-26T10:39:09.849Z,9.00
2022-08-26T10:42:42.680Z,7.60
2022-08-26T10:45:51.383Z,9.60
2022-08-26T10:48:56.534Z,11.40
2022-08-26T10:52:18.549Z,9.20
2022-08-26T10:55:29.392Z,13.00
2022-08-26T10:58:37.166Z,11.40
2022-08-26T11:01:51.001Z,12.20
2022-08-26T11:04:57.811Z,8.00
2022-08-26T11:08:19.325Z,10.00
2022-08-26T11:11:45.387Z,10.60
2022-08-26T11:14:58.476Z,10.20
2022-08-26T11:18:07.368Z,8.40
2022-08-26T11:21:47.791Z,8.80
2022-08-26T11:24:54.751Z,9.80
2022-08-26T11:27:59.722Z,9.00
2022-08-26T11:31:04.477Z,10.00
2022-08-26T11:34:10.763Z,10.80
2022-08-26T11:37:15.878Z,10.20
2022-08-26T11:40:21.655Z,10.20
2022-08-26T11:43:29.892Z,9.40
2022-08-26T11:46:37.308Z,11.80
2022-08-26T11:49:39.772Z,7.60
2022-08-26T11:53:06.588Z,10.00
2022-08-26T11:56:15.737Z,9.20
2022-08-26T11:59:23.989Z,8.20
2022-08-26T12:02:26.954Z,9.20
2022-08-26T12:05:36.236Z,11.00
2022-08-26T12:08:43.812Z,10.80
2022-08-26T12:11:46.078Z,8.80
2022-08-26T12:14:49.270Z,10.80
2022-08-26T12:17:54.571Z,8.20
2022-08-26T12:21:00.082Z,7.60
2022-08-26T12:24:04.019Z,9.20
2022-08-26T12:27:22.962Z,9.20
2022-08-26T12:30:25.998Z,10.60
2022-08-26T12:33:29.269Z,11.00
2022-08-26T12:36:37.352Z,11.00
2022-08-26T12:39:43.321Z,11.60
2022-08-26T12:42:45.454Z,10.60
2022-08-26T12:46:00.042Z,10.40
2022-08-26T12:49:03.081Z,6.60
2022-08-26T12:52:07.552Z,7.00
2022-08-26T12:55:31.475Z,6.00
2022-08-26T12:58:38.503Z,8.40
2022-08-26T13:01:44.718Z,7.20
2022-08-26T13:04:47.337Z,9.40
2022-08-26T13:08:12.483Z,10.60
2022-08-26T13:11:20.572Z,9.00
2022-08-26T13:14:24.870Z,9.00
2022-08-26T13:17:28.834Z,10.60
2022-08-26T13:20:32.348Z,6.00
2022-08-26T13:23:35.445Z,9.00
2022-08-26T13:26:44.809Z,8.60
2022-08-26T13:29:47.258Z,9.40
2022-08-26T13:32:53.243Z,7.00
2022-08-26T13:35:56.485Z,9.00
2022-08-26T13:38:59.034Z,8.60
2022-08-26T13:42:01.535Z,8.20
2022-08-26T13:45:04.761Z,9.00
2022-08-26T13:48:08.320Z,8.60
2022-08-26T13:51:10.567Z,7.80
2022-08-26T13:54:12.905Z,10.00
2022-08-26T13:57:15.467Z,9.20
2022-08-26T14:00:18.302Z,9.60
2022-08-26T14:03:21.530Z,9.40
2022-08-26T14:06:23.963Z,9.20
2022-08-26T14:09:26.177Z,8.60
2022-08-26T14:12:29.344Z,8.60
2022-08-26T14:15:35.986Z,9.20
2022-08-26T14:18:42.573Z,9.20
2022-08-26T14:21:46.574Z,10.20
2022-08-26T14:24:49.546Z,9.60
2022-08-26T14:27:53.458Z,10.20
2022-08-26T14:30:58.240Z,9.80
2022-08-26T14:34:03.752Z,10.00
2022-08-26T14:37:07.742Z,11.00
2022-08-26T14:40:11.994Z,10.80
2022-08-26T14:43:17.348Z,10.80
2022-08-26T14:46:19.515Z,11.60
2022-08-26T14:49:23.815Z,10.75
2022-08-26T14:52:26.280Z,12.25
2022-08-26T14:55:29.338Z,9.75
2022-08-26T14:58:34.854Z,13.50
2022-08-26T15:01:37.758Z,13.00
2022-08-26T15:04:40.571Z,12.50
2022-08-26T15:07:43.145Z,13.00
2022-08-26T15:10:45.421Z,14.00
2022-08-26T15:13:47.935Z,11.00
2022-08-26T15:16:53.198Z,10.25
2022-08-26T15:19:55.540Z,11.75
2022-08-26T15:22:58.985Z,13.00
2022-08-26T15:26:10.030Z,13.00
2022-08-26T15:29:12.742Z,13.00
2022-08-26T15:32:15.156Z,12.25
2022-08-26T15:35:17.281Z,14.00
2022-08-26T15:38:19.648Z,13.50
2022-08-26T15:41:22.678Z,13.50
2022-08-26T15:44:25.853Z,15.00
2022-08-26T15:47:27.857Z,13.75
2022-08-26T15:50:31.351Z,13.75
2022-08-26T15:53:34.894Z,13.25
2022-08-26T15:56:38.711Z,12.75
2022-08-26T15:59:40.901Z,12.00
2022-08-26T16:02:43.515Z,12.00
2022-08-26T16:05:47.061Z,9.00
2022-08-26T16:08:50.131Z,12.75
2022-08-26T16:11:56.220Z,13.50
2022-08-26T16:14:58.552Z,13.75
2022-08-26T16:18:02.358Z,14.50
2022-08-26T16:21:13.162Z,13.00
2022-08-26T16:24:16.464Z,14.25
2022-08-26T16:27:18.776Z,12.00
2022-08-26T16:30:25.546Z,11.25
2022-08-26T16:33:29.735Z,14.00
2022-08-26T16:36:32.198Z,14.75
2022-08-26T16:39:34.625Z,13.50
2022-08-26T16:42:42.379Z,13.50
2022-08-26T16:45:44.793Z,13.50
2022-08-26T16:48:46.932Z,12.00
2022-08-26T16:51:49.509Z,12.00
2022-08-26T16:54:52.565Z,15.33
2022-08-26T16:57:55.048Z,13.67
2022-08-26T17:00:57.455Z,14.33
2022-08-26T17:03:59.801Z,15.00
2022-08-26T17:07:02.005Z,17.00
2022-08-26T17:10:06.640Z,16.33
2022-08-26T17:13:08.882Z,15.00
2022-08-26T17:16:12.609Z,13.00
2022-08-26T17:19:14.686Z,14.67
2022-08-26T17:22:17.512Z,15.00
2022-08-26T17:25:23.945Z,14.00
2022-08-26T17:28:26.225Z,14.00
2022-08-26T17:31:28.351Z,15.00
2022-08-26T17:34:30.639Z,15.67
2022-08-26T17:37:34.641Z,14.00
2022-08-26T17:40:37.094Z,15.00
2022-08-26T17:43:40.155Z,16.00
2022-08-26T17:46:43.575Z,14.67
2022-08-26T17:49:45.789Z,13.00
2022-08-26T17:52:48.159Z,13.00
2022-08-26T17:55:51.160Z,14.00
2022-08-26T17:58:56.411Z,14.00
2022-08-26T18:01:59.158Z,14.33
2022-08-26T18:05:01.498Z,13.33
2022-08-26T18:08:03.829Z,15.67
2022-08-26T18:11:15.830Z,15.00
2022-08-26T18:14:17.902Z,15.00
2022-08-26T18:17:20.181Z,15.50
2022-08-26T18:20:22.313Z,14.33
2022-08-26T18:23:24.811Z,16.00
2022-08-26T18:26:32.290Z,15.00
2022-08-26T18:29:34.749Z,13.67
2022-08-26T18:32:37.106Z,16.00
2022-08-26T18:35:40.582Z,16.67
2022-08-26T18:38:45.556Z,16.67
2022-08-26T18:41:52.555Z,15.00
2022-08-26T18:44:54.549Z,15.67
2022-08-26T18:47:57.424Z,15.33
2022-08-26T18:51:00.177Z,18.00
2022-08-26T18:54:05.634Z,18.00
2022-08-26T18:57:07.796Z,17.00
2022-08-26T19:00:11.735Z,17.00
2022-08-26T19:03:19.108Z,18.33
2022-08-26T19:06:23.353Z,16.00
2022-08-26T19:09:26.402Z,15.67
2022-08-26T19:12:29.601Z,16.33
2022-08-26T19:15:41.441Z,15.33
2022-08-26T19:18:44.528Z,16.00
2022-08-26T19:21:47.158Z,17.00
2022-08-26T19:24:49.417Z,17.67
2022-08-26T19:27:51.444Z,17.00
2022-08-26T19:30:53.849Z,18.33
2022-08-26T19:33:57.915Z,17.00
2022-08-26T19:37:00.660Z,18.33
2022-08-26T19:40:02.908Z,18.67
2022-08-26T19:43:05.383Z,19.33
2022-08-26T19:46:16.092Z,18.33
2022-08-26T19:49:18.682Z,19.00
2022-08-26T19:52:23.203Z,19.00
2022-08-26T19:55:32.212Z,20.00
2022-08-26T19:58:35.418Z,19.33
2022-08-26T20:01:38.245Z,17.67
2022-08-26T20:04:41.936Z,18.67
2022-08-26T20:07:44.364Z,18.00
2022-08-26T20:10:48.201Z,19.00
2022-08-26T20:13:55.279Z,17.00
2022-08-26T20:16:57.505Z,18.33
2022-08-26T20:20:31.616Z,17.33
2022-08-26T20:23:37.101Z,17.33
2022-08-26T20:26:41.818Z,18.00
2022-08-26T20:29:44.221Z,12.67
2022-08-26T20:32:46.738Z,20.00
2022-08-26T20:35:48.805Z,19.33
2022-08-26T20:38:51.145Z,18.75
2022-08-26T20:41:53.407Z,18.33
2022-08-26T20:44:55.726Z,20.00
2022-08-26T20:47:58.125Z,20.00
2022-08-26T20:51:01.314Z,18.00
2022-08-26T20:54:05.394Z,19.50
2022-08-26T20:57:07.824Z,18.00
2022-08-26T21:00:12.837Z,18.75
2022-08-26T21:03:16.558Z,20.00
2022-08-26T21:06:18.998Z,19.50
2022-08-26T21:09:24.685Z,20.00
2022-08-26T21:12:26.929Z,19.00
2022-08-26T21:15:29.705Z,19.25
2022-08-26T21:18:33.773Z,19.75
2022-08-26T21:21:36.539Z,19.75
2022-08-26T21:24:38.653Z,19.25
2022-08-26T21:27:41.046Z,20.00
2022-08-26T21:30:43.215Z,20.00
2022-08-26T21:33:45.717Z,20.00
2022-08-26T21:36:48.552Z,20.00
2022-08-26T21:39:55.640Z,20.00
2022-08-26T21:42:57.773Z,20.50
2022-08-26T21:46:11.762Z,17.00
2022-08-26T21:49:15.973Z,20.00
2022-08-26T21:52:18.300Z,20.00
2022-08-26T21:55:20.368Z,17.75
2022-08-26T21:58:22.830Z,19.75
2022-08-26T22:01:27.347Z,19.75
2022-08-26T22:04:29.704Z,20.00
2022-08-26T22:07:31.917Z,19.75
2022-08-26T22:10:34.352Z,19.50
2022-08-26T22:13:38.381Z,18.00
2022-08-26T22:16:40.867Z,20.00
2022-08-26T22:19:45.736Z,20.25
2022-08-26T22:22:49.269Z,20.00
2022-08-26T22:25:51.729Z,18.50
2022-08-26T22:28:58.558Z,18.25
2022-08-26T22:32:01.505Z,20.00
2022-08-26T22:35:11.405Z,20.00
2022-08-26T22:38:27.962Z,21.00
2022-08-26T22:41:30.330Z,19.25
2022-08-26T22:44:37.545Z,20.00
2022-08-26T22:47:40.499Z,20.50
2022-08-26T22:50:43.694Z,19.75
2022-08-26T22:53:46.300Z,20.00
2022-08-26T22:56:48.677Z,17.25
2022-08-26T22:59:51.051Z,19.00
2022-08-26T23:02:53.227Z,20.00
2022-08-26T23:05:56.004Z,20.50
2022-08-26T23:08:58.212Z,19.75
2022-08-26T23:12:00.586Z,17.75
2022-08-26T23:15:02.952Z,20.25
2022-08-26T23:18:05.514Z,20.00
2022-08-26T23:21:08.035Z,20.00
2022-08-26T23:24:11.012Z,20.50
2022-08-26T23:27:13.179Z,20.00
2022-08-26T23:30:20.003Z,20.00
2022-08-26T23:33:22.154Z,21.50
2022-08-26T23:36:24.700Z,20.00
2022-08-26T23:39:27.134Z,17.50
2022-08-26T23:42:29.492Z,18.75
2022-08-26T23:45:33.102Z,21.00
2022-08-26T23:48:35.420Z,19.75
2022-08-26T23:51:56.765Z,21.00
2022-08-26T23:54:59.229Z,20.75
2022-08-26T23:58:01.785Z,21.75
